sensor_id;sensor_type;location;lat;lon;timestamp;temperature;humidity
7704;DHT22;3894;49.700;10.770;2023-05-16T00:01:17;10.90;99.90
7704;DHT22;3894;49.700;10.770;2023-05-16T00:03:43;10.90;99.90
7704;DHT22;3894;49.700;10.770;2023-05-16T00:06:09;10.80;99.90
7704;DHT22;3894;49.700;10.770;2023-05-16T00:08:35;10.70;99.90
7704;DHT22;3894;49.700;10.770;2023-05-16T00:11:01;10.70;99.90
7704;DHT22;3894;49.700;10.770;2023-05-16T00:13:28;10.70;99.90
7704;DHT22;3894;49.700;10.770;2023-05-16T00:15:54;10.80;99.90
7704;DHT22;3894;49.700;10.770;2023-05-16T00:18:21;10.70;99.90
7704;DHT22;3894;49.700;10.770;2023-05-16T00:20:47;10.60;99.90
7704;DHT22;3894;49.700;10.770;2023-05-16T00:23:13;10.40;99.90
7704;DHT22;3894;49.700;10.770;2023-05-16T00:25:39;10.20;99.90
7704;DHT22;3894;49.700;10.770;2023-05-16T00:28:06;10.10;99.90
7704;DHT22;3894;49.700;10.770;2023-05-16T00:30:31;10.10;99.90
7704;DHT22;3894;49.700;10.770;2023-05-16T00:32:57;10.10;99.90
7704;DHT22;3894;49.700;10.770;2023-05-16T00:35:22;10.20;99.90
7704;DHT22;3894;49.700;10.770;2023-05-16T00:37:49;10.30;99.90
7704;DHT22;3894;49.700;10.770;2023-05-16T00:40:15;10.50;99.90
7704;DHT22;3894;49.700;10.770;2023-05-16T00:42:40;10.60;99.90
7704;DHT22;3894;49.700;10.770;2023-05-16T00:45:06;10.60;99.90
7704;DHT22;3894;49.700;10.770;2023-05-16T00:47:32;10.70;99.90
7704;DHT22;3894;49.700;10.770;2023-05-16T00:49:58;10.70;99.90
7704;DHT22;3894;49.700;10.770;2023-05-16T00:52:24;10.80;99.90
7704;DHT22;3894;49.700;10.770;2023-05-16T00:54:50;10.80;99.90
7704;DHT22;3894;49.700;10.770;2023-05-16T00:57:16;10.80;99.90
7704;DHT22;3894;49.700;10.770;2023-05-16T00:59:43;10.80;99.90
7704;DHT22;3894;49.700;10.770;2023-05-16T01:02:08;10.70;99.90
7704;DHT22;3894;49.700;10.770;2023-05-16T01:04:34;10.60;99.90
7704;DHT22;3894;49.700;10.770;2023-05-16T01:07:01;10.60;99.90
7704;DHT22;3894;49.700;10.770;2023-05-16T01:09:27;10.50;99.90
7704;DHT22;3894;49.700;10.770;2023-05-16T01:12:07;10.40;99.90
7704;DHT22;3894;49.700;10.770;2023-05-16T01:14:45;10.40;99.90
7704;DHT22;3894;49.700;10.770;2023-05-16T01:25:05;10.50;99.90
7704;DHT22;3894;49.700;10.770;2023-05-16T01:27:37;10.60;99.90
7704;DHT22;3894;49.700;10.770;2023-05-16T01:30:17;10.60;99.90
7704;DHT22;3894;49.700;10.770;2023-05-16T01:32:43;10.70;99.90
7704;DHT22;3894;49.700;10.770;2023-05-16T01:35:11;10.70;99.90
7704;DHT22;3894;49.700;10.770;2023-05-16T01:37:49;10.60;99.90
7704;DHT22;3894;49.700;10.770;2023-05-16T01:43:12;10.40;99.90
7704;DHT22;3894;49.700;10.770;2023-05-16T01:45:46;10.40;99.90
7704;DHT22;3894;49.700;10.770;2023-05-16T01:51:39;10.20;99.90
7704;DHT22;3894;49.700;10.770;2023-05-16T01:54:09;10.20;99.90
7704;DHT22;3894;49.700;10.770;2023-05-16T01:56:36;10.20;99.90
7704;DHT22;3894;49.700;10.770;2023-05-16T01:59:03;10.20;99.90
7704;DHT22;3894;49.700;10.770;2023-05-16T02:01:29;10.30;99.90
7704;DHT22;3894;49.700;10.770;2023-05-16T02:03:56;10.30;99.90
7704;DHT22;3894;49.700;10.770;2023-05-16T02:06:22;10.30;99.90
7704;DHT22;3894;49.700;10.770;2023-05-16T02:08:48;10.30;99.90
7704;DHT22;3894;49.700;10.770;2023-05-16T02:11:14;10.30;99.90
7704;DHT22;3894;49.700;10.770;2023-05-16T02:13:39;10.40;99.90
7704;DHT22;3894;49.700;10.770;2023-05-16T02:16:05;10.40;99.90
7704;DHT22;3894;49.700;10.770;2023-05-16T02:18:30;10.40;99.90
7704;DHT22;3894;49.700;10.770;2023-05-16T02:20:56;10.40;99.90
7704;DHT22;3894;49.700;10.770;2023-05-16T02:23:22;10.40;99.90
7704;DHT22;3894;49.700;10.770;2023-05-16T02:25:48;10.30;99.90
7704;DHT22;3894;49.700;10.770;2023-05-16T02:28:13;10.20;99.90
7704;DHT22;3894;49.700;10.770;2023-05-16T02:30:39;10.20;99.90
7704;DHT22;3894;49.700;10.770;2023-05-16T02:33:04;10.10;99.90
7704;DHT22;3894;49.700;10.770;2023-05-16T02:35:30;10.10;99.90
7704;DHT22;3894;49.700;10.770;2023-05-16T02:37:56;10.20;99.90
7704;DHT22;3894;49.700;10.770;2023-05-16T02:40:21;10.20;99.90
7704;DHT22;3894;49.700;10.770;2023-05-16T02:42:47;10.20;99.90
7704;DHT22;3894;49.700;10.770;2023-05-16T02:45:12;10.20;99.90
7704;DHT22;3894;49.700;10.770;2023-05-16T02:47:38;10.00;99.90
7704;DHT22;3894;49.700;10.770;2023-05-16T02:50:04;10.00;99.90
7704;DHT22;3894;49.700;10.770;2023-05-16T02:52:29;9.90;99.90
7704;DHT22;3894;49.700;10.770;2023-05-16T02:54:55;9.90;99.90
7704;DHT22;3894;49.700;10.770;2023-05-16T02:57:21;9.90;99.90
7704;DHT22;3894;49.700;10.770;2023-05-16T02:59:47;9.90;99.90
7704;DHT22;3894;49.700;10.770;2023-05-16T03:02:12;9.90;99.90
7704;DHT22;3894;49.700;10.770;2023-05-16T03:04:38;9.90;99.90
7704;DHT22;3894;49.700;10.770;2023-05-16T03:07:03;9.80;99.90
7704;DHT22;3894;49.700;10.770;2023-05-16T03:09:29;9.80;99.90
7704;DHT22;3894;49.700;10.770;2023-05-16T03:11:54;9.80;99.90
7704;DHT22;3894;49.700;10.770;2023-05-16T03:14:20;9.80;99.90
7704;DHT22;3894;49.700;10.770;2023-05-16T03:16:46;9.80;99.90
7704;DHT22;3894;49.700;10.770;2023-05-16T03:19:11;9.80;99.90
7704;DHT22;3894;49.700;10.770;2023-05-16T03:21:38;9.90;99.90
7704;DHT22;3894;49.700;10.770;2023-05-16T03:24:04;10.00;99.90
7704;DHT22;3894;49.700;10.770;2023-05-16T03:26:29;10.10;99.90
7704;DHT22;3894;49.700;10.770;2023-05-16T03:28:55;10.20;99.90
7704;DHT22;3894;49.700;10.770;2023-05-16T03:31:21;10.20;99.90
7704;DHT22;3894;49.700;10.770;2023-05-16T03:33:46;10.20;99.90
7704;DHT22;3894;49.700;10.770;2023-05-16T03:36:12;10.20;99.90
7704;DHT22;3894;49.700;10.770;2023-05-16T03:38:38;10.30;99.90
7704;DHT22;3894;49.700;10.770;2023-05-16T03:41:03;10.30;99.90
7704;DHT22;3894;49.700;10.770;2023-05-16T03:43:29;10.30;99.90
7704;DHT22;3894;49.700;10.770;2023-05-16T03:45:55;10.30;99.90
7704;DHT22;3894;49.700;10.770;2023-05-16T03:48:20;10.30;99.90
7704;DHT22;3894;49.700;10.770;2023-05-16T03:50:46;10.30;99.90
7704;DHT22;3894;49.700;10.770;2023-05-16T03:53:12;10.30;99.90
7704;DHT22;3894;49.700;10.770;2023-05-16T03:55:38;10.30;99.90
7704;DHT22;3894;49.700;10.770;2023-05-16T03:58:03;10.30;99.90
7704;DHT22;3894;49.700;10.770;2023-05-16T04:00:29;10.30;99.90
7704;DHT22;3894;49.700;10.770;2023-05-16T04:02:54;10.30;99.90
7704;DHT22;3894;49.700;10.770;2023-05-16T04:05:20;10.20;99.90
7704;DHT22;3894;49.700;10.770;2023-05-16T04:07:46;10.10;99.90
7704;DHT22;3894;49.700;10.770;2023-05-16T04:10:12;10.10;99.90
7704;DHT22;3894;49.700;10.770;2023-05-16T04:12:38;10.20;99.90
7704;DHT22;3894;49.700;10.770;2023-05-16T04:15:04;10.20;99.90
7704;DHT22;3894;49.700;10.770;2023-05-16T04:17:31;10.30;99.90
7704;DHT22;3894;49.700;10.770;2023-05-16T04:19:56;10.30;99.90
7704;DHT22;3894;49.700;10.770;2023-05-16T04:22:22;10.40;99.90
7704;DHT22;3894;49.700;10.770;2023-05-16T04:24:48;10.30;99.90
7704;DHT22;3894;49.700;10.770;2023-05-16T04:27:14;10.30;99.90
7704;DHT22;3894;49.700;10.770;2023-05-16T04:29:39;10.40;99.90
7704;DHT22;3894;49.700;10.770;2023-05-16T04:32:05;10.40;99.90
7704;DHT22;3894;49.700;10.770;2023-05-16T04:34:32;10.40;99.90
7704;DHT22;3894;49.700;10.770;2023-05-16T04:36:58;10.40;99.90
7704;DHT22;3894;49.700;10.770;2023-05-16T04:39:24;10.50;99.90
7704;DHT22;3894;49.700;10.770;2023-05-16T04:41:50;10.50;99.90
7704;DHT22;3894;49.700;10.770;2023-05-16T04:44:15;10.50;99.90
7704;DHT22;3894;49.700;10.770;2023-05-16T04:46:41;10.50;99.90
7704;DHT22;3894;49.700;10.770;2023-05-16T04:49:07;10.50;99.90
7704;DHT22;3894;49.700;10.770;2023-05-16T04:51:32;10.50;99.90
7704;DHT22;3894;49.700;10.770;2023-05-16T04:53:59;10.50;99.90
7704;DHT22;3894;49.700;10.770;2023-05-16T04:56:25;10.50;99.90
7704;DHT22;3894;49.700;10.770;2023-05-16T04:58:54;10.40;99.90
7704;DHT22;3894;49.700;10.770;2023-05-16T05:01:19;10.40;99.90
7704;DHT22;3894;49.700;10.770;2023-05-16T05:03:45;10.30;99.90
7704;DHT22;3894;49.700;10.770;2023-05-16T05:06:10;10.30;99.90
7704;DHT22;3894;49.700;10.770;2023-05-16T05:08:36;10.30;99.90
7704;DHT22;3894;49.700;10.770;2023-05-16T05:11:01;10.30;99.90
7704;DHT22;3894;49.700;10.770;2023-05-16T05:13:27;10.40;99.90
7704;DHT22;3894;49.700;10.770;2023-05-16T05:15:52;10.50;99.90
7704;DHT22;3894;49.700;10.770;2023-05-16T05:18:18;10.50;99.90
7704;DHT22;3894;49.700;10.770;2023-05-16T05:20:44;10.60;99.90
7704;DHT22;3894;49.700;10.770;2023-05-16T05:23:09;10.70;99.90
7704;DHT22;3894;49.700;10.770;2023-05-16T05:25:35;10.70;99.90
7704;DHT22;3894;49.700;10.770;2023-05-16T05:28:01;10.80;99.90
7704;DHT22;3894;49.700;10.770;2023-05-16T05:30:26;10.80;99.90
7704;DHT22;3894;49.700;10.770;2023-05-16T05:32:52;10.80;99.90
7704;DHT22;3894;49.700;10.770;2023-05-16T05:35:19;10.90;99.90
7704;DHT22;3894;49.700;10.770;2023-05-16T05:37:45;10.90;99.90
7704;DHT22;3894;49.700;10.770;2023-05-16T05:40:10;11.00;99.90
7704;DHT22;3894;49.700;10.770;2023-05-16T05:42:36;11.10;99.90
7704;DHT22;3894;49.700;10.770;2023-05-16T05:45:02;11.10;99.90
7704;DHT22;3894;49.700;10.770;2023-05-16T05:47:28;11.10;99.90
7704;DHT22;3894;49.700;10.770;2023-05-16T05:49:53;11.10;99.90
7704;DHT22;3894;49.700;10.770;2023-05-16T05:52:19;11.10;99.90
7704;DHT22;3894;49.700;10.770;2023-05-16T05:54:46;11.10;99.90
7704;DHT22;3894;49.700;10.770;2023-05-16T05:57:11;11.20;99.90
7704;DHT22;3894;49.700;10.770;2023-05-16T05:59:37;11.20;99.90
7704;DHT22;3894;49.700;10.770;2023-05-16T06:02:03;11.40;99.90
7704;DHT22;3894;49.700;10.770;2023-05-16T06:04:28;11.60;99.90
7704;DHT22;3894;49.700;10.770;2023-05-16T06:06:54;11.80;99.90
7704;DHT22;3894;49.700;10.770;2023-05-16T06:09:20;11.90;99.90
7704;DHT22;3894;49.700;10.770;2023-05-16T06:11:46;12.00;99.90
7704;DHT22;3894;49.700;10.770;2023-05-16T06:14:13;12.00;99.90
7704;DHT22;3894;49.700;10.770;2023-05-16T06:16:39;11.80;99.90
7704;DHT22;3894;49.700;10.770;2023-05-16T06:19:05;11.90;99.90
7704;DHT22;3894;49.700;10.770;2023-05-16T06:21:31;11.90;99.90
7704;DHT22;3894;49.700;10.770;2023-05-16T06:23:57;12.00;99.90
7704;DHT22;3894;49.700;10.770;2023-05-16T06:26:23;12.00;99.90
7704;DHT22;3894;49.700;10.770;2023-05-16T06:28:49;12.00;99.90
7704;DHT22;3894;49.700;10.770;2023-05-16T06:31:14;12.40;99.90
7704;DHT22;3894;49.700;10.770;2023-05-16T06:33:40;12.90;99.90
7704;DHT22;3894;49.700;10.770;2023-05-16T06:36:06;13.50;99.90
7704;DHT22;3894;49.700;10.770;2023-05-16T06:38:31;13.90;99.90
7704;DHT22;3894;49.700;10.770;2023-05-16T06:40:57;14.10;99.90
7704;DHT22;3894;49.700;10.770;2023-05-16T06:43:22;14.40;99.90
7704;DHT22;3894;49.700;10.770;2023-05-16T06:45:48;14.60;99.90
7704;DHT22;3894;49.700;10.770;2023-05-16T06:48:13;14.60;99.90
7704;DHT22;3894;49.700;10.770;2023-05-16T06:50:40;14.60;99.90
7704;DHT22;3894;49.700;10.770;2023-05-16T06:53:07;14.50;99.90
7704;DHT22;3894;49.700;10.770;2023-05-16T06:55:33;14.60;99.90
7704;DHT22;3894;49.700;10.770;2023-05-16T06:57:58;14.50;99.90
7704;DHT22;3894;49.700;10.770;2023-05-16T07:00:24;14.40;99.90
7704;DHT22;3894;49.700;10.770;2023-05-16T07:02:50;14.40;99.90
7704;DHT22;3894;49.700;10.770;2023-05-16T07:05:15;14.50;99.90
7704;DHT22;3894;49.700;10.770;2023-05-16T07:07:41;14.40;99.90
7704;DHT22;3894;49.700;10.770;2023-05-16T07:10:07;14.10;99.90
7704;DHT22;3894;49.700;10.770;2023-05-16T07:12:34;14.00;99.90
7704;DHT22;3894;49.700;10.770;2023-05-16T07:15:00;13.90;99.90
7704;DHT22;3894;49.700;10.770;2023-05-16T07:17:26;13.80;99.90
7704;DHT22;3894;49.700;10.770;2023-05-16T07:19:52;13.80;99.90
7704;DHT22;3894;49.700;10.770;2023-05-16T07:22:17;13.70;99.90
7704;DHT22;3894;49.700;10.770;2023-05-16T07:24:43;13.60;99.90
7704;DHT22;3894;49.700;10.770;2023-05-16T07:27:08;13.70;99.90
7704;DHT22;3894;49.700;10.770;2023-05-16T07:29:34;13.70;99.90
7704;DHT22;3894;49.700;10.770;2023-05-16T07:32:01;13.70;99.90
7704;DHT22;3894;49.700;10.770;2023-05-16T07:34:27;13.70;99.90
7704;DHT22;3894;49.700;10.770;2023-05-16T07:36:53;13.70;99.90
7704;DHT22;3894;49.700;10.770;2023-05-16T07:39:18;13.90;99.90
7704;DHT22;3894;49.700;10.770;2023-05-16T07:41:44;14.00;99.90
7704;DHT22;3894;49.700;10.770;2023-05-16T07:44:10;14.00;99.90
7704;DHT22;3894;49.700;10.770;2023-05-16T07:46:35;13.90;99.90
7704;DHT22;3894;49.700;10.770;2023-05-16T07:49:01;13.80;99.90
7704;DHT22;3894;49.700;10.770;2023-05-16T07:51:26;13.80;99.90
7704;DHT22;3894;49.700;10.770;2023-05-16T07:53:53;13.70;99.90
7704;DHT22;3894;49.700;10.770;2023-05-16T07:56:18;13.60;99.90
7704;DHT22;3894;49.700;10.770;2023-05-16T07:58:44;13.50;99.90
7704;DHT22;3894;49.700;10.770;2023-05-16T08:01:10;13.40;99.90
7704;DHT22;3894;49.700;10.770;2023-05-16T08:03:36;13.20;99.90
7704;DHT22;3894;49.700;10.770;2023-05-16T08:06:01;13.20;99.90
7704;DHT22;3894;49.700;10.770;2023-05-16T08:08:27;13.20;99.90
7704;DHT22;3894;49.700;10.770;2023-05-16T08:10:53;13.20;99.90
7704;DHT22;3894;49.700;10.770;2023-05-16T08:13:18;13.10;99.90
7704;DHT22;3894;49.700;10.770;2023-05-16T08:15:44;13.00;99.90
7704;DHT22;3894;49.700;10.770;2023-05-16T08:18:14;12.90;99.90
7704;DHT22;3894;49.700;10.770;2023-05-16T08:20:40;12.70;99.90
7704;DHT22;3894;49.700;10.770;2023-05-16T08:23:07;12.60;99.90
7704;DHT22;3894;49.700;10.770;2023-05-16T08:25:32;12.60;99.90
7704;DHT22;3894;49.700;10.770;2023-05-16T08:27:58;12.60;99.90
7704;DHT22;3894;49.700;10.770;2023-05-16T08:30:26;12.70;99.90
7704;DHT22;3894;49.700;10.770;2023-05-16T08:32:51;12.80;99.90
7704;DHT22;3894;49.700;10.770;2023-05-16T08:35:17;12.80;99.90
7704;DHT22;3894;49.700;10.770;2023-05-16T08:37:42;12.90;99.90
7704;DHT22;3894;49.700;10.770;2023-05-16T08:40:09;12.80;99.90
7704;DHT22;3894;49.700;10.770;2023-05-16T08:42:36;12.80;99.90
7704;DHT22;3894;49.700;10.770;2023-05-16T08:45:02;12.90;99.90
7704;DHT22;3894;49.700;10.770;2023-05-16T08:47:30;13.00;99.90
7704;DHT22;3894;49.700;10.770;2023-05-16T08:49:57;13.00;99.90
7704;DHT22;3894;49.700;10.770;2023-05-16T08:52:25;13.00;99.90
7704;DHT22;3894;49.700;10.770;2023-05-16T08:54:53;13.00;99.90
7704;DHT22;3894;49.700;10.770;2023-05-16T08:57:19;13.20;99.90
7704;DHT22;3894;49.700;10.770;2023-05-16T08:59:45;13.40;99.90
7704;DHT22;3894;49.700;10.770;2023-05-16T09:02:11;13.40;99.90
7704;DHT22;3894;49.700;10.770;2023-05-16T09:04:37;13.50;99.90
7704;DHT22;3894;49.700;10.770;2023-05-16T09:07:05;13.50;99.90
7704;DHT22;3894;49.700;10.770;2023-05-16T09:09:31;13.60;99.90
7704;DHT22;3894;49.700;10.770;2023-05-16T09:11:56;13.90;99.90
7704;DHT22;3894;49.700;10.770;2023-05-16T09:14:22;14.10;99.90
7704;DHT22;3894;49.700;10.770;2023-05-16T09:17:07;14.30;99.90
7704;DHT22;3894;49.700;10.770;2023-05-16T09:19:41;14.30;99.90
7704;DHT22;3894;49.700;10.770;2023-05-16T09:22:13;14.10;99.90
7704;DHT22;3894;49.700;10.770;2023-05-16T09:24:43;13.80;99.90
7704;DHT22;3894;49.700;10.770;2023-05-16T09:27:13;13.70;99.90
7704;DHT22;3894;49.700;10.770;2023-05-16T09:29:43;13.50;99.90
7704;DHT22;3894;49.700;10.770;2023-05-16T09:32:13;13.60;99.90
7704;DHT22;3894;49.700;10.770;2023-05-16T09:34:45;13.70;99.90
7704;DHT22;3894;49.700;10.770;2023-05-16T09:37:14;13.90;99.90
7704;DHT22;3894;49.700;10.770;2023-05-16T09:39:51;14.00;99.90
7704;DHT22;3894;49.700;10.770;2023-05-16T09:42:18;14.00;99.90
7704;DHT22;3894;49.700;10.770;2023-05-16T09:44:46;14.00;99.90
7704;DHT22;3894;49.700;10.770;2023-05-16T09:47:20;14.10;99.90
7704;DHT22;3894;49.700;10.770;2023-05-16T09:49:49;14.10;99.90
7704;DHT22;3894;49.700;10.770;2023-05-16T09:52:16;14.10;99.90
7704;DHT22;3894;49.700;10.770;2023-05-16T09:54:41;14.30;99.90
7704;DHT22;3894;49.700;10.770;2023-05-16T09:57:08;14.60;99.90
7704;DHT22;3894;49.700;10.770;2023-05-16T09:59:37;15.00;99.90
7704;DHT22;3894;49.700;10.770;2023-05-16T10:02:07;15.20;99.90
7704;DHT22;3894;49.700;10.770;2023-05-16T10:04:33;15.20;99.90
7704;DHT22;3894;49.700;10.770;2023-05-16T10:07:02;15.10;99.90
7704;DHT22;3894;49.700;10.770;2023-05-16T10:09:32;15.20;99.90
7704;DHT22;3894;49.700;10.770;2023-05-16T10:12:03;15.30;99.90
7704;DHT22;3894;49.700;10.770;2023-05-16T10:14:35;15.40;99.90
7704;DHT22;3894;49.700;10.770;2023-05-16T10:17:05;15.40;99.90
7704;DHT22;3894;49.700;10.770;2023-05-16T10:19:35;15.60;99.90
7704;DHT22;3894;49.700;10.770;2023-05-16T10:22:04;16.00;99.90
7704;DHT22;3894;49.700;10.770;2023-05-16T10:27:06;16.20;99.90
7704;DHT22;3894;49.700;10.770;2023-05-16T10:29:32;15.90;99.90
7704;DHT22;3894;49.700;10.770;2023-05-16T10:31:58;15.70;99.90
7704;DHT22;3894;49.700;10.770;2023-05-16T10:34:24;15.90;99.90
7704;DHT22;3894;49.700;10.770;2023-05-16T10:36:50;16.00;99.90
7704;DHT22;3894;49.700;10.770;2023-05-16T10:39:16;16.00;99.90
7704;DHT22;3894;49.700;10.770;2023-05-16T10:41:44;16.10;99.90
7704;DHT22;3894;49.700;10.770;2023-05-16T10:44:14;16.00;99.90
7704;DHT22;3894;49.700;10.770;2023-05-16T10:46:42;15.70;99.90
7704;DHT22;3894;49.700;10.770;2023-05-16T10:49:22;15.40;99.90
7704;DHT22;3894;49.700;10.770;2023-05-16T10:52:11;15.30;99.90
7704;DHT22;3894;49.700;10.770;2023-05-16T10:54:39;15.40;99.90
7704;DHT22;3894;49.700;10.770;2023-05-16T10:57:17;15.40;99.90
7704;DHT22;3894;49.700;10.770;2023-05-16T10:59:48;15.40;99.90
7704;DHT22;3894;49.700;10.770;2023-05-16T11:02:32;15.50;99.90
7704;DHT22;3894;49.700;10.770;2023-05-16T11:05:00;15.60;99.90
7704;DHT22;3894;49.700;10.770;2023-05-16T11:07:31;15.70;99.90
7704;DHT22;3894;49.700;10.770;2023-05-16T11:10:16;15.70;99.90
7704;DHT22;3894;49.700;10.770;2023-05-16T11:17:46;14.90;99.90
7704;DHT22;3894;49.700;10.770;2023-05-16T11:20:30;14.70;99.90
7704;DHT22;3894;49.700;10.770;2023-05-16T11:25:44;14.90;99.90
7704;DHT22;3894;49.700;10.770;2023-05-16T11:28:14;15.00;99.90
7704;DHT22;3894;49.700;10.770;2023-05-16T11:30:58;15.20;99.90
7704;DHT22;3894;49.700;10.770;2023-05-16T11:33:24;15.70;99.90
7704;DHT22;3894;49.700;10.770;2023-05-16T11:36:03;15.90;99.90
7704;DHT22;3894;49.700;10.770;2023-05-16T11:38:30;16.20;99.90
7704;DHT22;3894;49.700;10.770;2023-05-16T11:41:04;16.40;99.90
7704;DHT22;3894;49.700;10.770;2023-05-16T11:43:40;16.70;99.90
7704;DHT22;3894;49.700;10.770;2023-05-16T11:46:06;16.90;99.90
7704;DHT22;3894;49.700;10.770;2023-05-16T11:48:32;17.20;99.90
7704;DHT22;3894;49.700;10.770;2023-05-16T11:50:58;17.20;99.90
7704;DHT22;3894;49.700;10.770;2023-05-16T11:53:23;17.40;99.90
7704;DHT22;3894;49.700;10.770;2023-05-16T11:55:49;17.40;99.90
7704;DHT22;3894;49.700;10.770;2023-05-16T11:58:18;17.20;99.90
7704;DHT22;3894;49.700;10.770;2023-05-16T12:00:50;17.00;99.90
7704;DHT22;3894;49.700;10.770;2023-05-16T12:03:17;16.40;99.90
7704;DHT22;3894;49.700;10.770;2023-05-16T12:05:54;16.30;99.90
7704;DHT22;3894;49.700;10.770;2023-05-16T12:08:21;16.10;99.90
7704;DHT22;3894;49.700;10.770;2023-05-16T12:10:49;16.10;99.90
7704;DHT22;3894;49.700;10.770;2023-05-16T12:13:16;16.10;99.90
7704;DHT22;3894;49.700;10.770;2023-05-16T12:15:42;16.60;99.90
7704;DHT22;3894;49.700;10.770;2023-05-16T12:18:09;17.20;99.90
7704;DHT22;3894;49.700;10.770;2023-05-16T12:20:35;17.30;99.90
7704;DHT22;3894;49.700;10.770;2023-05-16T12:23:01;17.30;99.90
7704;DHT22;3894;49.700;10.770;2023-05-16T12:25:29;17.20;99.90
7704;DHT22;3894;49.700;10.770;2023-05-16T12:27:58;16.70;99.90
7704;DHT22;3894;49.700;10.770;2023-05-16T12:30:25;16.40;99.90
7704;DHT22;3894;49.700;10.770;2023-05-16T12:33:02;16.40;99.90
7704;DHT22;3894;49.700;10.770;2023-05-16T12:35:30;16.60;99.90
7704;DHT22;3894;49.700;10.770;2023-05-16T12:37:56;16.60;99.90
7704;DHT22;3894;49.700;10.770;2023-05-16T12:40:22;16.30;99.90
7704;DHT22;3894;49.700;10.770;2023-05-16T12:42:49;16.10;99.90
7704;DHT22;3894;49.700;10.770;2023-05-16T12:45:16;16.10;99.90
7704;DHT22;3894;49.700;10.770;2023-05-16T12:47:42;15.70;99.90
7704;DHT22;3894;49.700;10.770;2023-05-16T12:50:12;15.70;99.90
7704;DHT22;3894;49.700;10.770;2023-05-16T12:52:57;15.50;99.90
7704;DHT22;3894;49.700;10.770;2023-05-16T12:55:23;15.20;99.90
7704;DHT22;3894;49.700;10.770;2023-05-16T12:57:48;15.60;99.90
7704;DHT22;3894;49.700;10.770;2023-05-16T13:00:16;16.00;99.90
7704;DHT22;3894;49.700;10.770;2023-05-16T13:02:43;16.30;99.90
7704;DHT22;3894;49.700;10.770;2023-05-16T13:05:09;16.00;99.90
7704;DHT22;3894;49.700;10.770;2023-05-16T13:07:36;15.90;99.90
7704;DHT22;3894;49.700;10.770;2023-05-16T13:10:04;15.70;99.90
7704;DHT22;3894;49.700;10.770;2023-05-16T13:12:31;15.60;99.90
7704;DHT22;3894;49.700;10.770;2023-05-16T13:14:56;15.60;99.90
7704;DHT22;3894;49.700;10.770;2023-05-16T13:17:22;15.90;99.90
7704;DHT22;3894;49.700;10.770;2023-05-16T13:19:55;16.20;99.90
7704;DHT22;3894;49.700;10.770;2023-05-16T13:22:20;15.80;99.90
7704;DHT22;3894;49.700;10.770;2023-05-16T13:24:46;15.50;99.90
7704;DHT22;3894;49.700;10.770;2023-05-16T13:27:15;15.50;99.90
7704;DHT22;3894;49.700;10.770;2023-05-16T13:29:42;15.70;99.90
7704;DHT22;3894;49.700;10.770;2023-05-16T13:32:07;15.60;99.90
7704;DHT22;3894;49.700;10.770;2023-05-16T13:34:33;15.70;99.90
7704;DHT22;3894;49.700;10.770;2023-05-16T13:36:59;15.70;99.90
7704;DHT22;3894;49.700;10.770;2023-05-16T13:39:25;15.50;99.90
7704;DHT22;3894;49.700;10.770;2023-05-16T13:41:50;15.60;99.90
7704;DHT22;3894;49.700;10.770;2023-05-16T13:44:16;15.80;99.90
7704;DHT22;3894;49.700;10.770;2023-05-16T13:46:42;15.80;99.90
7704;DHT22;3894;49.700;10.770;2023-05-16T13:49:08;16.00;99.90
7704;DHT22;3894;49.700;10.770;2023-05-16T13:51:34;15.80;99.90
7704;DHT22;3894;49.700;10.770;2023-05-16T13:53:59;15.70;99.90
7704;DHT22;3894;49.700;10.770;2023-05-16T13:56:25;15.80;99.90
7704;DHT22;3894;49.700;10.770;2023-05-16T13:58:51;15.90;99.90
7704;DHT22;3894;49.700;10.770;2023-05-16T14:01:16;16.10;99.90
7704;DHT22;3894;49.700;10.770;2023-05-16T14:03:42;16.10;99.90
7704;DHT22;3894;49.700;10.770;2023-05-16T14:06:08;16.00;99.90
7704;DHT22;3894;49.700;10.770;2023-05-16T14:08:34;16.10;99.90
7704;DHT22;3894;49.700;10.770;2023-05-16T14:11:00;16.10;99.90
7704;DHT22;3894;49.700;10.770;2023-05-16T14:13:25;16.00;99.90
7704;DHT22;3894;49.700;10.770;2023-05-16T14:15:51;15.70;99.90
7704;DHT22;3894;49.700;10.770;2023-05-16T14:18:17;15.40;99.90
7704;DHT22;3894;49.700;10.770;2023-05-16T14:20:42;15.30;99.90
7704;DHT22;3894;49.700;10.770;2023-05-16T14:23:08;15.30;99.90
7704;DHT22;3894;49.700;10.770;2023-05-16T14:25:33;15.10;99.90
7704;DHT22;3894;49.700;10.770;2023-05-16T14:27:59;15.20;99.90
7704;DHT22;3894;49.700;10.770;2023-05-16T14:30:25;15.20;99.90
7704;DHT22;3894;49.700;10.770;2023-05-16T14:32:51;15.30;99.90
7704;DHT22;3894;49.700;10.770;2023-05-16T14:35:17;15.20;99.90
7704;DHT22;3894;49.700;10.770;2023-05-16T14:37:42;15.10;99.90
7704;DHT22;3894;49.700;10.770;2023-05-16T14:40:08;15.00;99.90
7704;DHT22;3894;49.700;10.770;2023-05-16T14:42:34;14.90;99.90
7704;DHT22;3894;49.700;10.770;2023-05-16T14:45:00;14.90;99.90
7704;DHT22;3894;49.700;10.770;2023-05-16T14:47:25;14.80;99.90
7704;DHT22;3894;49.700;10.770;2023-05-16T14:49:52;14.70;99.90
7704;DHT22;3894;49.700;10.770;2023-05-16T14:52:18;14.50;99.90
7704;DHT22;3894;49.700;10.770;2023-05-16T14:54:44;14.30;99.90
7704;DHT22;3894;49.700;10.770;2023-05-16T14:57:09;14.30;99.90
7704;DHT22;3894;49.700;10.770;2023-05-16T14:59:35;14.20;99.90
7704;DHT22;3894;49.700;10.770;2023-05-16T15:02:01;14.10;99.90
7704;DHT22;3894;49.700;10.770;2023-05-16T15:04:27;14.00;99.90
7704;DHT22;3894;49.700;10.770;2023-05-16T15:06:53;14.00;99.90
7704;DHT22;3894;49.700;10.770;2023-05-16T15:09:19;13.90;99.90
7704;DHT22;3894;49.700;10.770;2023-05-16T15:11:44;13.90;99.90
7704;DHT22;3894;49.700;10.770;2023-05-16T15:14:10;14.00;99.90
7704;DHT22;3894;49.700;10.770;2023-05-16T15:16:36;14.00;99.90
7704;DHT22;3894;49.700;10.770;2023-05-16T15:19:01;14.10;99.90
7704;DHT22;3894;49.700;10.770;2023-05-16T15:21:27;14.30;99.90
7704;DHT22;3894;49.700;10.770;2023-05-16T15:23:53;14.50;99.90
7704;DHT22;3894;49.700;10.770;2023-05-16T15:26:19;14.70;99.90
7704;DHT22;3894;49.700;10.770;2023-05-16T15:28:47;14.70;99.90
7704;DHT22;3894;49.700;10.770;2023-05-16T15:31:12;14.70;99.90
7704;DHT22;3894;49.700;10.770;2023-05-16T15:33:38;14.60;99.90
7704;DHT22;3894;49.700;10.770;2023-05-16T15:36:04;14.60;99.90
7704;DHT22;3894;49.700;10.770;2023-05-16T15:38:30;14.50;99.90
7704;DHT22;3894;49.700;10.770;2023-05-16T15:40:56;14.50;99.90
7704;DHT22;3894;49.700;10.770;2023-05-16T15:43:23;14.40;99.90
7704;DHT22;3894;49.700;10.770;2023-05-16T15:45:48;14.30;99.90
7704;DHT22;3894;49.700;10.770;2023-05-16T15:48:14;14.30;99.90
7704;DHT22;3894;49.700;10.770;2023-05-16T15:50:40;14.30;99.90
7704;DHT22;3894;49.700;10.770;2023-05-16T15:53:06;14.30;99.90
7704;DHT22;3894;49.700;10.770;2023-05-16T15:55:31;14.20;99.90
7704;DHT22;3894;49.700;10.770;2023-05-16T15:57:57;14.20;99.90
7704;DHT22;3894;49.700;10.770;2023-05-16T16:00:24;14.20;99.90
7704;DHT22;3894;49.700;10.770;2023-05-16T16:02:50;14.20;99.90
7704;DHT22;3894;49.700;10.770;2023-05-16T16:05:16;14.20;99.90
7704;DHT22;3894;49.700;10.770;2023-05-16T16:07:41;14.30;99.90
7704;DHT22;3894;49.700;10.770;2023-05-16T16:10:08;14.30;99.90